This is the latest recevied weather packets stored in our database for station/object LRCK. If no packets are shown the sender has not sent any weather packets the latest 10 day(s).
| Time | Temp. | Humidity | Pressure | Rain* | Wind** | Luminosity | Snow |
|---|---|---|---|---|---|---|---|
| 1777409338 | 5° C | 87% | 1019 hPa | - | - | - | - |
| 1777408397 | 5° C | 87% | 1019 hPa | - | - | - | - |
| 1777407497 | 5° C | 87% | 1019 hPa | - | - | - | - |
| 1777406597 | 5° C | 87% | 1019 hPa | - | - | - | - |
| 1777405753 | 5° C | 87% | 1019 hPa | - | - | - | - |
| 1777404799 | 5° C | 87% | 1019 hPa | - | - | - | - |
| 1777403921 | 5° C | 87% | 1019 hPa | - | - | - | - |
| 1777402997 | 5° C | 87% | 1019 hPa | - | - | - | - |
| 1777402097 | 6.11° C | 81% | 1019 hPa | - | - | - | - |
| 1777401198 | 6.11° C | 81% | 1019 hPa | - | - | - | - |
| 1777400298 | 7.22° C | 76% | 1019 hPa | - | - | - | - |
| 1777399397 | 7.22° C | 76% | 1019 hPa | - | - | - | - |
| 1777398497 | 7.22° C | 76% | 1019 hPa | - | - | - | - |
| 1777397596 | 7.22° C | 76% | 1019 hPa | - | - | - | - |
| 1777396774 | 8.89° C | 62% | 1018 hPa | - | - | - | - |
| 1777395797 | 8.89° C | 62% | 1018 hPa | - | - | - | - |
| 1777394898 | 8.89° C | 58% | 1018 hPa | - | - | - | - |
| 1777393997 | 8.89° C | 58% | 1018 hPa | - | - | - | - |
| 1777393098 | 11.11° C | 47% | 1018 hPa | - | - | - | - |
| 1777392197 | 11.11° C | 47% | 1018 hPa | - | - | - | - |
| 1777391298 | 12.22° C | 41% | 1018 hPa | - | - | - | - |
| 1777390397 | 12.22° C | 41% | 1018 hPa | - | - | - | - |
| 1777389497 | 12.78° C | 38% | 1018 hPa | - | - | - | - |
| 1777388597 | 12.78° C | 38% | 1018 hPa | - | - | - | - |
| 1777387698 | 13.89° C | 39% | 1018 hPa | - | - | - | - |
* Rain since midnight (hover to see other rain measurements)
** Current wind speed in m/s (hover to see current wind gust speed)